KMHE/MHE METAR and TAF weather

Enter ICAO airport designator
Station Type Date Time Source
KMHE METAR 2020/09/30 14:53 UTC NOAA

KMHE 301453Z AUTO 32020G26KT 10SM CLR 15/02 A3004 RMK AO2 PK WND 31028/1411 SLP170 T01500022 51031


Station Type Date Time Source
KMHE Decoded METAR 2020/09/30 14:53 UTC NOAA

MITCHELL MUNICIPAL AIRPORT, SD, United States (KMHE) 43-46N 98-02W
Sep 30, 2020 - 10:53 AM EDT / 2020.09.30 1453 UTC
Wind: from the NW (320 degrees) at 23 MPH (20 KT) gusting to 30 MPH (26 KT):0
Visibility: 10 mile(s):0
Sky conditions: clear
Temperature: 59.0 F (15.0 C)
Dew Point: 36.0 F (2.2 C)
Relative Humidity: 41%
Pressure (altimeter): 30.04 in. Hg (1017 hPa)
Pressure tendency: 0.09 inches (3.1 hPa) higher than three hours ago
ob: KMHE 301453Z AUTO 32020G26KT 10SM CLR 15/02 A3004 RMK AO2 PK WND 31028/1411 SLP170 T01500022 51031
cycle: 15

Station Type Date Time Source
KMHE TAF UTC NOAA

Error!

Example: see airport list